Worthington, Ohio
Current Conditions -  °F | °C
As of 6:53 PM on Monday 22 Dec 2014 (Local Time) from KOSU Reporting Station
Overcast Overcast  
Wind Chill: 41°   Ceiling: 10000
Heat Index: 45°   Visibility: 10mi
Dew Point: 35°   Wind: 7mph
Humidity: 68%   Direction: 110°ESE
Pressure: 29.85"   Gusts: NA
Location:  40.1°N, 83.02°W
Report Text: KOSU 222353Z 11006KT 10SM OVC100 07/02 A2985 RMK AO2 SLP114 T00720017 10089 20072 55012
Loading
Personal Weather Stations






























Interactive Weather Map New forecast layout! Learn more

10-Day Weather Forecast

Advertisements
Track Severe Weather on mobile